Time;durP1;ratioP1;P1;durP2;ratioP2;P2;SDS_P1;SDS_P2;PMS_P1;PMS_P2;Temp;Humidity;BMP_temperature;BMP_pressure;BME280_temperature;BME280_humidity;BME280_pressure;Samples;Min_cycle;Max_cycle;Signal;HPM_P1;HPM_P2
2022/03/25 00:01:00;;;;;;;30.73;19.50;;;9.10;91.80;;;;;;4971601;28;20058;-66
2022/03/25 00:03:26;;;;;;;33.23;20.77;;;;;;;;;;4972812;28;20507;-66
2022/03/25 00:05:52;;;;;;;30.93;20.63;;;8.90;95.70;;;;;;4973355;28;20109;-66
2022/03/25 00:08:18;;;;;;;30.53;20.23;;;8.70;95.90;;;;;;4973301;28;20122;-66
2022/03/25 00:10:43;;;;;;;37.03;22.43;;;8.70;94.60;;;;;;4957110;28;20051;-66
2022/03/25 00:13:10;;;;;;;40.43;22.93;;;8.50;96.30;;;;;;4953919;28;20046;-66
2022/03/25 00:15:36;;;;;;;33.07;21.13;;;8.50;96.50;;;;;;4954042;28;20039;-66
2022/03/25 00:18:01;;;;;;;33.53;20.47;;;8.40;96.60;;;;;;4953382;29;20031;-66
2022/03/25 00:20:27;;;;;;;37.20;21.63;;;8.20;96.60;;;;;;4966977;28;20512;-66
2022/03/25 00:22:52;;;;;;;33.47;20.37;;;8.20;96.70;;;;;;4971819;28;20414;-66
2022/03/25 00:25:18;;;;;;;33.60;20.07;;;;;;;;;;4972807;28;20498;-66
2022/03/25 00:27:44;;;;;;;34.07;20.70;;;8.20;96.60;;;;;;4973213;28;20025;-66
2022/03/25 00:30:10;;;;;;;34.83;21.80;;;8.30;96.70;;;;;;4961898;28;20042;-66
2022/03/25 00:32:36;;;;;;;39.87;25.37;;;;;;;;;;4953191;29;20134;-66
2022/03/25 00:35:01;;;;;;;38.27;24.30;;;;;;;;;;4952264;29;20047;-66
2022/03/25 00:37:27;;;;;;;40.80;23.60;;;8.10;96.70;;;;;;4953436;29;20023;-67
2022/03/25 00:39:53;;;;;;;42.73;26.07;;;8.00;96.80;;;;;;4961412;28;20042;-66
2022/03/25 00:42:19;;;;;;;37.03;24.43;;;;;;;;;;4972745;28;20113;-67
2022/03/25 00:44:47;;;;;;;45.87;24.50;;;;;;;;;;4973119;28;20026;-66
2022/03/25 00:47:14;;;;;;;33.77;21.43;;;7.70;94.00;;;;;;4972244;28;20030;-66
2022/03/25 00:49:39;;;;;;;37.40;23.17;;;7.80;97.40;;;;;;4966049;28;20023;-66
2022/03/25 00:52:05;;;;;;;37.57;23.33;;;7.70;97.50;;;;;;4953187;29;20039;-66
2022/03/25 00:54:31;;;;;;;34.93;22.27;;;7.60;97.60;;;;;;4953070;28;20039;-66
2022/03/25 00:56:57;;;;;;;38.07;21.80;;;;;;;;;;4953328;29;20031;-66
2022/03/25 00:59:22;;;;;;;38.53;23.40;;;7.50;97.80;;;;;;4956800;28;20472;-66
2022/03/25 01:01:49;;;;;;;41.53;25.77;;;;;;;;;;4971903;28;20035;-66
2022/03/25 01:04:16;;;;;;;35.10;22.87;;;;;;;;;;4971233;28;20511;-66
2022/03/25 01:06:42;;;;;;;38.87;22.77;;;7.20;98.10;;;;;;4972565;28;20472;-66
2022/03/25 01:09:08;;;;;;;39.13;21.87;;;;;;;;;;4969882;28;20027;-66
2022/03/25 01:11:35;;;;;;;39.60;23.53;;;7.20;98.30;;;;;;4953784;28;20031;-66
2022/03/25 01:14:01;;;;;;;38.47;22.33;;;7.20;98.40;;;;;;4952384;28;20176;-66
2022/03/25 01:16:27;;;;;;;42.40;26.80;;;7.10;96.20;;;;;;4953023;28;20031;-66
2022/03/25 01:18:52;;;;;;;38.97;26.13;;;7.20;98.70;;;;;;4952554;29;20050;-66
2022/03/25 01:21:18;;;;;;;42.97;24.00;;;;;;;;;;4961792;28;20065;-66
2022/03/25 01:23:45;;;;;;;44.03;26.17;;;7.00;98.80;;;;;;4972232;28;20483;-66
2022/03/25 01:26:11;;;;;;;47.80;28.63;;;6.90;98.70;;;;;;4971783;28;20472;-66
2022/03/25 01:28:37;;;;;;;42.43;26.13;;;;;;;;;;4960674;28;20361;-66
2022/03/25 01:31:04;;;;;;;50.10;27.33;;;6.80;91.90;;;;;;4952517;29;20038;-66
2022/03/25 01:33:30;;;;;;;43.60;25.73;;;6.80;98.80;;;;;;4959710;28;20031;-66
2022/03/25 01:35:56;;;;;;;37.40;22.93;;;6.70;98.90;;;;;;4971706;28;20027;-66
2022/03/25 01:38:23;;;;;;;40.47;25.27;;;6.70;91.70;;;;;;4962415;28;20090;-66
2022/03/25 01:40:49;;;;;;;45.80;27.20;;;;;;;;;;4963227;28;20038;-66
2022/03/25 01:43:15;;;;;;;44.93;27.53;;;6.70;98.90;;;;;;4970918;28;20196;-65
2022/03/25 01:45:40;;;;;;;47.83;28.73;;;6.60;99.10;;;;;;4962671;28;20102;-66
2022/03/25 01:48:11;;;;;;;44.23;26.97;;;6.60;99.20;;;;;;4952176;29;20059;-66
2022/03/25 01:50:40;;;;;;;49.73;28.53;;;6.60;92.60;;;;;;4952268;28;20024;-66
2022/03/25 01:53:26;;;;;;;48.10;30.00;;;6.60;94.70;;;;;;4952140;28;20027;-66
2022/03/25 01:56:00;;;;;;;47.77;28.77;;;6.60;99.40;;;;;;4961975;28;20117;-66
2022/03/25 01:58:28;;;;;;;50.17;30.10;;;6.50;99.50;;;;;;4971019;28;20365;-68
2022/03/25 02:00:54;;;;;;;51.37;30.13;;;5.90;92.60;;;;;;4971020;28;20045;-66
2022/03/25 02:03:20;;;;;;;50.07;28.87;;;6.50;99.60;;;;;;4971167;28;20389;-66
2022/03/25 02:05:47;;;;;;;48.50;30.23;;;6.50;99.70;;;;;;4962396;28;20041;-66
2022/03/25 02:08:13;;;;;;;52.27;29.40;;;6.50;99.80;;;;;;4952205;28;20032;-66
2022/03/25 02:10:39;;;;;;;51.93;30.30;;;6.50;99.80;;;;;;4951887;28;20504;-66
2022/03/25 02:13:06;;;;;;;55.20;32.53;;;6.40;99.90;;;;;;4950691;28;20035;-66
2022/03/25 02:15:36;;;;;;;54.53;32.63;;;6.40;99.90;;;;;;4958806;28;20041;-66
2022/03/25 02:18:08;;;;;;;50.37;30.17;;;6.40;99.90;;;;;;4969473;28;20470;-66
2022/03/25 02:20:34;;;;;;;46.83;29.40;;;6.40;93.50;;;;;;4971144;28;20383;-66
2022/03/25 02:23:00;;;;;;;52.97;31.33;;;6.30;99.90;;;;;;4971148;28;20499;-65
2022/03/25 02:25:26;;;;;;;56.47;31.90;;;6.30;99.90;;;;;;4964723;28;20046;-66
2022/03/25 02:27:53;;;;;;;59.10;33.67;;;6.20;99.90;;;;;;4951313;28;20110;-68
2022/03/25 02:30:20;;;;;;;58.40;35.03;;;6.20;93.70;;;;;;4951663;28;20105;-68
2022/03/25 02:32:45;;;;;;;57.07;32.47;;;6.60;99.90;;;;;;4952066;28;20073;-66
2022/03/25 02:35:11;;;;;;;55.53;34.60;;;6.20;99.90;;;;;;4955591;28;20047;-66
2022/03/25 02:37:37;;;;;;;56.00;33.73;;;6.60;99.10;;;;;;4970871;28;20042;-66
2022/03/25 02:40:03;;;;;;;59.30;34.90;;;6.30;99.90;;;;;;4970942;28;20031;-66
2022/03/25 02:42:28;;;;;;;56.67;34.07;;;6.20;99.90;;;;;;4970668;28;20566;-66
2022/03/25 02:44:54;;;;;;;56.60;35.30;;;6.20;99.90;;;;;;4967808;28;20142;-66
2022/03/25 02:47:20;;;;;;;59.17;33.10;;;;;;;;;;4951628;29;20056;-66
2022/03/25 02:49:46;;;;;;;62.37;35.20;;;6.10;99.90;;;;;;4952065;29;20709;-66
2022/03/25 02:52:11;;;;;;;65.13;38.27;;;;;;;;;;4951622;29;20019;-68
2022/03/25 02:54:37;;;;;;;62.43;37.20;;;6.10;99.90;;;;;;4951543;29;20075;-68
2022/03/25 02:57:03;;;;;;;59.00;35.93;;;6.20;99.90;;;;;;4968859;28;20038;-68
2022/03/25 02:59:29;;;;;;;59.50;36.13;;;;;;;;;;4970576;28;20042;-68
2022/03/25 03:01:55;;;;;;;61.33;36.17;;;6.00;99.90;;;;;;4969149;28;20396;-68
2022/03/25 03:04:20;;;;;;;59.77;35.40;;;6.20;99.90;;;;;;4970795;28;20034;-68
2022/03/25 03:06:46;;;;;;;59.00;35.23;;;6.50;99.90;;;;;;4955061;28;20078;-68
2022/03/25 03:09:11;;;;;;;64.23;36.93;;;6.00;94.00;;;;;;4951243;29;20031;-67
2022/03/25 03:11:37;;;;;;;59.63;37.23;;;6.00;99.90;;;;;;4951009;29;20039;-68
2022/03/25 03:14:04;;;;;;;54.90;33.57;;;5.90;94.70;;;;;;4951133;29;20031;-67
2022/03/25 03:16:29;;;;;;;57.67;35.67;;;5.80;99.90;;;;;;4964908;28;20085;-68
2022/03/25 03:18:55;;;;;;;61.83;36.57;;;;;;;;;;4970540;28;20027;-68
2022/03/25 03:21:24;;;;;;;56.23;36.10;;;5.40;99.90;;;;;;4970615;28;20039;-68
2022/03/25 03:23:51;;;;;;;57.23;34.87;;;;;;;;;;4971778;28;20022;-67
2022/03/25 03:26:17;;;;;;;62.77;36.10;;;;;;;;;;4971868;28;20042;-68
2022/03/25 03:28:44;;;;;;;63.93;38.00;;;5.80;99.90;;;;;;4972904;28;20494;-67
2022/03/25 03:31:10;;;;;;;62.10;38.00;;;5.80;99.90;;;;;;4974136;28;20050;-68
2022/03/25 03:33:35;;;;;;;64.07;38.27;;;5.90;99.90;;;;;;4974041;28;20558;-68
2022/03/25 03:36:01;;;;;;;62.70;38.33;;;5.80;99.90;;;;;;4960665;28;20070;-68
2022/03/25 03:38:27;;;;;;;59.27;37.33;;;5.80;99.90;;;;;;4954693;29;20495;-68
2022/03/25 03:40:53;;;;;;;64.27;41.23;;;;;;;;;;4953977;28;20031;-68
2022/03/25 03:43:18;;;;;;;62.37;37.80;;;5.60;99.90;;;;;;4953075;29;20065;-67
2022/03/25 03:45:44;;;;;;;64.93;37.87;;;;;;;;;;4964963;28;20038;-68
2022/03/25 03:48:11;;;;;;;63.63;37.57;;;5.60;99.90;;;;;;4973629;28;20707;-68
2022/03/25 03:50:36;;;;;;;60.93;38.70;;;5.60;99.90;;;;;;4973782;28;20102;-68
2022/03/25 03:53:03;;;;;;;61.57;38.23;;;;;;;;;;4973461;28;20177;-68
2022/03/25 03:55:29;;;;;;;68.37;40.27;;;5.50;99.90;;;;;;4970005;28;20038;-68
2022/03/25 03:57:54;;;;;;;64.00;40.67;;;5.20;99.90;;;;;;4973104;28;20039;-68
2022/03/25 04:00:21;;;;;;;70.43;39.83;;;5.50;99.90;;;;;;4972261;28;20574;-68
2022/03/25 04:02:47;;;;;;;67.77;41.27;;;;;;;;;;4973852;28;20031;-68
2022/03/25 04:05:13;;;;;;;67.80;38.37;;;5.40;99.90;;;;;;4967157;28;20683;-67
2022/03/25 04:07:44;;;;;;;67.43;39.07;;;5.40;99.90;;;;;;4954139;29;20035;-67
2022/03/25 04:10:10;;;;;;;63.40;38.63;;;5.30;95.70;;;;;;4953368;28;20055;-66
2022/03/25 04:12:36;;;;;;;65.43;39.43;;;5.20;98.60;;;;;;4954097;28;20105;-66
2022/03/25 04:15:03;;;;;;;59.43;36.20;;;5.20;98.40;;;;;;4957861;28;20063;-66
2022/03/25 04:17:28;;;;;;;65.27;42.60;;;5.10;99.90;;;;;;4967204;28;20066;-66
2022/03/25 04:19:54;;;;;;;66.07;39.93;;;5.10;99.90;;;;;;4952500;29;20137;-66
2022/03/25 04:22:20;;;;;;;64.10;39.80;;;;;;;;;;4953857;29;20056;-66
2022/03/25 04:24:46;;;;;;;68.67;39.90;;;;;;;;;;4953857;29;20059;-66
2022/03/25 04:27:12;;;;;;;73.77;45.20;;;;;;;;;;4955978;28;20055;-66
2022/03/25 04:29:37;;;;;;;73.73;43.37;;;5.10;99.90;;;;;;4973041;28;20023;-66
2022/03/25 04:32:03;;;;;;;73.20;43.73;;;5.10;99.90;;;;;;4972851;28;20030;-66
2022/03/25 04:34:29;;;;;;;71.83;42.87;;;5.30;99.90;;;;;;4970669;28;20031;-66
2022/03/25 04:36:54;;;;;;;76.07;46.73;;;5.40;99.90;;;;;;4952838;29;20090;-66
2022/03/25 04:39:20;;;;;;;81.13;49.00;;;5.50;99.90;;;;;;4952948;29;20047;-66
2022/03/25 04:41:45;;;;;;;77.17;49.90;;;5.50;99.90;;;;;;4953588;29;20035;-66
2022/03/25 04:44:11;;;;;;;77.40;48.93;;;5.30;99.90;;;;;;4953282;29;20449;-66
2022/03/25 04:46:36;;;;;;;82.50;49.23;;;5.50;99.90;;;;;;4971545;28;20373;-66
2022/03/25 04:49:06;;;;;;;73.27;44.57;;;5.30;99.90;;;;;;4972544;28;20019;-66
2022/03/25 04:51:31;;;;;;;74.13;45.80;;;5.40;99.90;;;;;;4971047;28;20031;-66
2022/03/25 04:53:57;;;;;;;71.83;43.90;;;;;;;;;;4972707;28;20076;-66
2022/03/25 04:56:23;;;;;;;71.37;42.70;;;;;;;;;;4955689;28;20043;-66
2022/03/25 04:58:49;;;;;;;70.50;42.60;;;;;;;;;;4953246;29;20163;-66
2022/03/25 05:01:15;;;;;;;70.17;42.40;;;;;;;;;;4953378;29;20126;-67
2022/03/25 05:03:42;;;;;;;75.03;45.00;;;;;;;;;;4953439;29;20057;-66
2022/03/25 05:06:08;;;;;;;75.33;46.70;;;4.90;99.90;;;;;;4966595;28;20149;-66
2022/03/25 05:08:33;;;;;;;79.77;45.40;;;;;;;;;;4971799;28;20435;-66
2022/03/25 05:10:59;;;;;;;72.53;45.77;;;5.20;99.90;;;;;;4971992;28;20764;-66
2022/03/25 05:13:25;;;;;;;81.07;48.73;;;;;;;;;;4972043;28;20030;-66
2022/03/25 05:15:51;;;;;;;78.30;46.00;;;5.10;98.40;;;;;;4960249;28;20027;-66
2022/03/25 05:18:17;;;;;;;80.13;45.53;;;5.20;99.90;;;;;;4952787;29;20070;-66
2022/03/25 05:20:43;;;;;;;73.70;45.33;;;;;;;;;;4952523;28;20102;-66
2022/03/25 05:23:08;;;;;;;76.50;44.77;;;5.10;99.90;;;;;;4952475;29;20031;-66
2022/03/25 05:25:34;;;;;;;72.47;44.20;;;5.00;99.90;;;;;;4961774;28;20535;-66
2022/03/25 05:28:00;;;;;;;72.43;45.07;;;5.00;99.90;;;;;;4971800;28;20027;-66
2022/03/25 05:30:27;;;;;;;75.27;45.43;;;4.90;99.90;;;;;;4971937;28;20038;-66
2022/03/25 05:32:54;;;;;;;79.93;48.27;;;5.00;99.90;;;;;;4971805;28;20472;-66
2022/03/25 05:35:21;;;;;;;82.10;49.23;;;4.90;98.80;;;;;;4963955;28;20117;-66
2022/03/25 05:37:47;;;;;;;84.33;52.17;;;4.90;99.90;;;;;;4951428;29;20039;-66
2022/03/25 05:40:13;;;;;;;85.77;52.80;;;5.00;99.90;;;;;;4952455;28;20035;-66
2022/03/25 05:42:40;;;;;;;83.70;52.30;;;4.90;99.90;;;;;;4952359;28;20519;-66
2022/03/25 05:45:07;;;;;;;76.93;50.33;;;4.60;99.90;;;;;;4957153;28;20031;-66
2022/03/25 05:47:36;;;;;;;81.87;51.37;;;5.40;99.90;;;;;;4971504;28;20042;-66
2022/03/25 05:50:03;;;;;;;88.50;55.33;;;4.90;98.90;;;;;;4971109;28;20041;-66
2022/03/25 05:52:29;;;;;;;89.17;53.50;;;5.00;99.90;;;;;;4971381;28;20067;-66
2022/03/25 05:54:55;;;;;;;85.63;52.00;;;;;;;;;;4970060;28;20050;-66
2022/03/25 05:57:21;;;;;;;82.77;51.67;;;5.00;99.90;;;;;;4971527;28;20133;-66
2022/03/25 05:59:47;;;;;;;90.27;52.73;;;4.90;99.90;;;;;;4971840;28;20035;-66
2022/03/25 06:02:13;;;;;;;90.90;56.40;;;;;;;;;;4971341;28;20023;-66
2022/03/25 06:04:39;;;;;;;90.10;53.90;;;;;;;;;;4969831;28;20126;-67
2022/03/25 06:07:05;;;;;;;86.33;52.40;;;5.00;99.90;;;;;;4951803;29;20552;-67
2022/03/25 06:09:31;;;;;;;89.73;56.43;;;;;;;;;;4952063;28;20450;-67
2022/03/25 06:11:57;;;;;;;84.43;53.03;;;5.00;99.90;;;;;;4951935;29;20030;-66
2022/03/25 06:14:24;;;;;;;88.33;54.47;;;;;;;;;;4951885;28;20090;-66
2022/03/25 06:16:50;;;;;;;83.87;53.37;;;4.90;99.90;;;;;;4970056;28;20067;-67
2022/03/25 06:19:17;;;;;;;80.60;52.40;;;;;;;;;;4970741;28;20073;-67
2022/03/25 06:21:43;;;;;;;81.37;50.30;;;4.90;99.90;;;;;;4971312;28;20037;-67
2022/03/25 06:24:08;;;;;;;88.33;54.10;;;5.50;99.90;;;;;;4971339;28;20070;-67
2022/03/25 06:26:34;;;;;;;87.27;54.77;;;;;;;;;;4955072;28;20035;-67
2022/03/25 06:29:00;;;;;;;85.33;52.40;;;5.10;99.90;;;;;;4951666;29;20035;-67
2022/03/25 06:31:25;;;;;;;90.20;57.10;;;5.10;99.90;;;;;;4957049;28;20041;-67
2022/03/25 06:33:50;;;;;;;75.93;48.50;;;5.10;99.90;;;;;;4970780;28;20033;-67
2022/03/25 06:36:16;;;;;;;75.73;47.40;;;;;;;;;;4957823;28;20039;-67
2022/03/25 06:38:43;;;;;;;74.60;49.97;;;4.90;99.90;;;;;;4951886;29;20047;-67
2022/03/25 06:41:09;;;;;;;78.70;51.97;;;5.40;99.90;;;;;;4951600;29;20039;-67
2022/03/25 06:43:34;;;;;;;79.73;49.27;;;5.50;99.90;;;;;;4954511;28;20565;-66
2022/03/25 06:46:00;;;;;;;89.43;56.33;;;5.50;99.90;;;;;;4968339;28;20150;-66
2022/03/25 06:48:26;;;;;;;78.77;50.40;;;5.50;99.90;;;;;;4967026;28;20027;-67
2022/03/25 06:50:53;;;;;;;82.93;50.70;;;5.40;99.90;;;;;;4957185;28;20086;-67
2022/03/25 06:53:19;;;;;;;81.50;53.67;;;5.50;99.60;;;;;;4966008;28;20056;-66
2022/03/25 06:55:45;;;;;;;83.03;53.77;;;;;;;;;;4950666;28;20445;-67
2022/03/25 06:58:11;;;;;;;94.27;57.13;;;5.80;99.90;;;;;;4951730;28;20027;-66
2022/03/25 07:00:37;;;;;;;91.60;57.17;;;5.80;99.90;;;;;;4955146;28;20165;-65
2022/03/25 07:03:03;;;;;;;87.60;56.47;;;5.80;99.90;;;;;;4963814;28;20476;-65
2022/03/25 07:05:32;;;;;;;85.00;53.13;;;5.80;99.90;;;;;;4991047;28;20141;-65
2022/03/25 07:07:58;;;;;;;85.40;55.33;;;5.80;99.90;;;;;;4989416;28;20015;-64
2022/03/25 07:10:26;;;;;;;82.77;51.40;;;5.90;99.90;;;;;;4974055;28;20061;-66
2022/03/25 07:12:52;;;;;;;90.30;58.27;;;6.00;99.90;;;;;;4961267;28;20449;-64
2022/03/25 07:15:20;;;;;;;91.70;55.77;;;;;;;;;;4955116;28;20033;-64
2022/03/25 07:17:46;;;;;;;83.93;54.50;;;6.30;99.90;;;;;;4954467;28;20023;-64
2022/03/25 07:20:13;;;;;;;89.90;54.50;;;6.40;99.90;;;;;;4964033;28;20042;-64
2022/03/25 07:22:40;;;;;;;85.57;52.93;;;6.30;99.90;;;;;;4993653;28;20118;-64
2022/03/25 07:25:06;;;;;;;92.17;58.13;;;6.60;99.90;;;;;;4993560;28;20423;-63
2022/03/25 07:27:32;;;;;;;82.60;53.23;;;;;;;;;;4993421;28;20117;-64
2022/03/25 07:29:58;;;;;;;76.17;49.30;;;;;;;;;;4993321;28;20031;-64
2022/03/25 07:32:24;;;;;;;89.70;57.60;;;;;;;;;;4992551;28;20033;-65
2022/03/25 07:34:49;;;;;;;86.03;53.27;;;7.00;99.90;;;;;;4991948;28;20460;-64
2022/03/25 07:37:15;;;;;;;85.83;56.33;;;;;;;;;;4993240;28;20113;-64
2022/03/25 07:39:42;;;;;;;91.93;55.97;;;7.10;99.90;;;;;;4993451;28;20034;-64
2022/03/25 07:42:07;;;;;;;85.90;55.60;;;7.40;99.90;;;;;;4992020;28;20097;-65
2022/03/25 07:44:34;;;;;;;84.67;54.97;;;7.50;99.90;;;;;;4993279;28;20034;-64
2022/03/25 07:46:59;;;;;;;84.60;54.17;;;7.60;99.90;;;;;;4992551;28;20030;-64
2022/03/25 07:49:25;;;;;;;83.73;53.77;;;7.70;99.90;;;;;;4976753;28;20038;-65
2022/03/25 07:51:51;;;;;;;90.23;55.93;;;;;;;;;;4990519;28;20360;-64
2022/03/25 07:54:16;;;;;;;86.57;53.97;;;7.70;99.90;;;;;;4987161;28;20084;-64
2022/03/25 07:56:42;;;;;;;81.07;53.73;;;;;;;;;;4956544;28;20043;-64
2022/03/25 07:59:08;;;;;;;86.53;52.03;;;;;;;;;;4968866;28;20047;-66
2022/03/25 08:01:34;;;;;;;89.23;55.40;;;;;;;;;;4960630;28;20031;-65
2022/03/25 08:04:00;;;;;;;79.93;51.10;;;7.90;99.90;;;;;;4972967;28;20023;-64
2022/03/25 08:06:26;;;;;;;85.67;55.80;;;;;;;;;;4973352;28;20483;-64
2022/03/25 08:08:52;;;;;;;83.53;52.77;;;8.30;99.90;;;;;;4973120;28;20718;-64
2022/03/25 08:11:20;;;;;;;83.37;55.37;;;;;;;;;;4971527;28;20046;-64
2022/03/25 08:13:47;;;;;;;85.67;53.77;;;8.80;99.90;;;;;;4973399;28;20495;-64
2022/03/25 08:16:14;;;;;;;78.43;53.17;;;;;;;;;;4971391;28;20042;-64
2022/03/25 08:18:40;;;;;;;77.23;51.80;;;8.70;99.90;;;;;;4972661;28;20034;-64
2022/03/25 08:21:06;;;;;;;81.73;53.37;;;8.70;99.90;;;;;;4972320;28;20038;-64
2022/03/25 08:29:01;;;;;;;88.23;56.27;;;;;;;;;;4972417;28;20140;-64
2022/03/25 08:31:28;;;;;;;82.60;53.70;;;;;;;;;;4971460;28;20057;-65
2022/03/25 08:33:54;;;;;;;75.50;50.20;;;;;;;;;;4972933;28;20023;-64
2022/03/25 08:36:20;;;;;;;72.60;49.40;;;;;;;;;;4972069;28;20117;-64
2022/03/25 08:38:46;;;;;;;74.13;48.87;;;;;;;;;;4962581;28;20110;-63
2022/03/25 08:41:13;;;;;;;70.27;48.73;;;9.60;99.90;;;;;;4970089;28;20042;-64
2022/03/25 08:43:38;;;;;;;75.97;48.97;;;10.10;99.90;;;;;;4965251;28;20043;-65
2022/03/25 08:46:04;;;;;;;68.90;47.03;;;10.10;99.90;;;;;;4952769;28;20035;-65
2022/03/25 08:48:31;;;;;;;73.03;48.90;;;10.10;99.90;;;;;;4953217;28;20123;-65
2022/03/25 08:50:57;;;;;;;69.73;48.77;;;;;;;;;;4953460;28;20035;-65
2022/03/25 08:53:23;;;;;;;69.20;48.10;;;10.30;99.90;;;;;;4972762;28;20027;-65
2022/03/25 08:55:48;;;;;;;72.00;48.27;;;10.50;99.70;;;;;;4972425;28;20365;-65
2022/03/25 08:58:14;;;;;;;63.90;43.90;;;10.50;99.60;;;;;;4971915;28;20023;-65
2022/03/25 09:00:39;;;;;;;68.30;46.23;;;10.40;99.10;;;;;;4972189;28;20043;-65
2022/03/25 09:03:05;;;;;;;63.80;43.70;;;10.50;95.10;;;;;;4954769;28;20038;-65
2022/03/25 09:05:31;;;;;;;63.63;46.47;;;10.60;98.60;;;;;;4952646;29;20031;-65
2022/03/25 09:07:57;;;;;;;66.23;46.60;;;10.70;98.50;;;;;;4952712;29;20081;-65
2022/03/25 09:10:23;;;;;;;66.00;45.77;;;10.80;98.30;;;;;;4951346;29;20126;-65
2022/03/25 09:12:49;;;;;;;71.73;47.73;;;;;;;;;;4966871;28;20038;-65
2022/03/25 09:15:15;;;;;;;70.97;46.60;;;;;;;;;;4972570;28;20023;-65
2022/03/25 09:17:42;;;;;;;64.37;43.60;;;10.90;92.40;;;;;;4972579;28;20023;-65
2022/03/25 09:20:08;;;;;;;63.93;44.50;;;11.30;90.20;;;;;;4971241;28;20034;-65
2022/03/25 09:22:34;;;;;;;67.03;42.97;;;11.10;97.00;;;;;;4958808;28;20035;-65
2022/03/25 09:25:01;;;;;;;65.13;44.27;;;11.30;96.60;;;;;;4951227;29;20050;-65
2022/03/25 09:27:27;;;;;;;67.93;46.57;;;;;;;;;;4969736;28;20039;-65
2022/03/25 09:29:53;;;;;;;65.40;43.97;;;11.40;96.30;;;;;;4968083;28;20033;-65
2022/03/25 09:32:19;;;;;;;65.20;45.23;;;;;;;;;;4971219;28;20031;-65
2022/03/25 09:37:29;;;;;;;61.05;42.17;;;;;;;;;;4970263;28;20093;-65
2022/03/25 09:39:54;;;;;;;62.27;42.90;;;11.90;96.10;;;;;;4971215;28;20508;-66
2022/03/25 09:42:20;;;;;;;57.47;40.63;;;;;;;;;;4960589;28;20428;-65
2022/03/25 09:44:48;;;;;;;61.30;42.50;;;12.00;95.60;;;;;;4952445;29;20387;-65
2022/03/25 09:47:16;;;;;;;50.93;35.70;;;12.00;95.50;;;;;;4952661;28;20104;-65
2022/03/25 09:49:42;;;;;;;54.67;37.13;;;12.10;95.60;;;;;;4952160;28;20035;-65
2022/03/25 09:52:08;;;;;;;53.17;35.27;;;12.10;94.90;;;;;;4959949;28;20484;-64
2022/03/25 09:54:34;;;;;;;52.30;35.80;;;;;;;;;;4971358;28;20053;-65
2022/03/25 09:57:01;;;;;;;54.77;37.90;;;12.10;94.30;;;;;;4970504;28;20393;-65
2022/03/25 09:59:26;;;;;;;56.75;37.22;;;12.20;92.50;;;;;;4970784;28;20031;-65
2022/03/25 10:01:52;;;;;;;57.40;38.57;;;12.20;93.60;;;;;;4951608;28;20034;-64
2022/03/25 10:04:40;;;;;;;57.78;38.25;;;12.40;80.10;;;;;;4951726;29;20023;-64
2022/03/25 10:07:23;;;;;;;50.10;35.80;;;12.70;93.40;;;;;;4951665;28;20039;-64
2022/03/25 10:10:07;;;;;;;60.47;40.67;;;12.50;81.70;;;;;;4953437;28;20081;-64
2022/03/25 10:12:33;;;;;;;54.95;36.97;;;12.60;93.40;;;;;;4969218;28;20420;-65
2022/03/25 10:15:22;;;;;;;60.00;42.40;;;12.90;93.30;;;;;;4956761;28;20393;-64
2022/03/25 10:17:55;;;;;;;57.67;39.72;;;12.70;90.40;;;;;;4951890;28;20027;-64
2022/03/25 10:20:27;;;;;;;46.25;34.13;;;13.00;93.40;;;;;;4957957;28;20370;-64
2022/03/25 10:23:03;;;;;;;50.53;33.33;;;12.90;93.30;;;;;;4970964;28;20474;-64
2022/03/25 10:25:45;;;;;;;57.53;37.45;;;13.20;93.30;;;;;;4970128;28;20022;-64
2022/03/25 10:28:46;;;;;;;53.08;33.45;;;12.90;93.10;;;;;;4970567;28;20023;-64
2022/03/25 10:31:16;;;;;;;52.08;36.50;;;13.30;93.20;;;;;;4955441;28;20043;-64
2022/03/25 10:33:57;;;;;;;49.83;33.90;;;13.00;92.90;;;;;;4952699;28;20026;-64
2022/03/25 10:36:25;;;;;;;68.03;44.53;;;13.10;92.90;;;;;;4955362;28;20031;-65
2022/03/25 10:39:04;;;;;;;60.13;40.92;;;13.40;92.90;;;;;;4955331;28;20039;-64
2022/03/25 10:41:37;;;;;;;61.90;39.95;;;13.20;92.80;;;;;;4969140;28;20049;-64
2022/03/25 10:44:04;;;;;;;63.60;43.88;;;13.40;88.30;;;;;;4973192;28;20122;-64
2022/03/25 10:46:40;;;;;;;61.95;41.08;;;13.60;92.60;;;;;;4974508;28;20503;-65
2022/03/25 10:49:10;;;;;;;53.75;36.90;;;13.60;92.70;;;;;;4974474;28;20023;-65
2022/03/25 10:51:41;;;;;;;56.67;38.75;;;13.50;92.70;;;;;;4973698;28;20035;-65
2022/03/25 10:54:09;;;;;;;53.67;36.47;;;13.60;92.60;;;;;;4973617;28;20106;-64
2022/03/25 10:57:01;;;;;;;58.28;39.47;;;13.70;92.60;;;;;;4973956;28;20395;-65
2022/03/25 10:59:28;;;;;;;52.20;35.95;;;13.90;92.50;;;;;;4972185;28;20066;-65
2022/03/25 11:01:56;;;;;;;50.53;34.17;;;13.70;92.40;;;;;;4955875;28;20046;-64
2022/03/25 11:04:22;;;;;;;42.95;28.02;;;13.70;92.30;;;;;;4954660;28;20024;-65
2022/03/25 11:06:48;;;;;;;57.30;37.53;;;14.00;78.90;;;;;;4966671;28;20176;-65
2022/03/25 11:09:16;;;;;;;52.85;35.85;;;13.70;92.00;;;;;;4954116;28;20118;-65
2022/03/25 11:11:47;;;;;;;53.60;34.30;;;14.00;92.10;;;;;;4955137;28;20487;-65
2022/03/25 11:14:13;;;;;;;54.55;36.53;;;14.20;92.20;;;;;;4954581;28;20504;-65
2022/03/25 11:16:54;;;;;;;58.47;39.83;;;14.20;92.10;;;;;;4955131;28;20027;-65
2022/03/25 11:19:21;;;;;;;59.97;40.10;;;14.30;91.90;;;;;;4954516;28;20034;-65
2022/03/25 11:21:48;;;;;;;61.45;41.45;;;14.30;92.00;;;;;;4954613;28;20036;-65
2022/03/25 11:24:20;;;;;;;58.97;40.78;;;14.40;92.40;;;;;;4968608;28;20119;-64
2022/03/25 11:26:49;;;;;;;57.65;41.03;;;14.40;92.40;;;;;;4973335;28;20027;-65
2022/03/25 11:29:18;;;;;;;53.33;39.30;;;14.30;92.00;;;;;;4973736;28;20042;-65
2022/03/25 11:32:11;;;;;;;61.70;44.15;;;14.30;92.10;;;;;;4972537;28;20027;-64
2022/03/25 11:34:45;;;;;;;53.95;39.78;;;14.30;92.40;;;;;;4967811;28;20043;-65
2022/03/25 11:37:18;;;;;;;52.33;35.45;;;14.20;92.30;;;;;;4967621;28;20035;-65
2022/03/25 11:39:43;;;;;;;56.25;40.17;;;14.50;92.40;;;;;;4970200;28;20475;-64
2022/03/25 11:42:37;;;;;;;55.03;39.65;;;14.50;92.50;;;;;;4973551;28;20035;-64
2022/03/25 11:45:20;;;;;;;58.80;39.10;;;14.80;92.40;;;;;;4973232;28;20121;-64
2022/03/25 11:48:01;;;;;;;53.28;37.63;;;14.60;81.80;;;;;;4973025;28;20037;-64
2022/03/25 11:50:31;;;;;;;54.80;38.38;;;15.10;92.40;;;;;;4973513;28;20038;-64
2022/03/25 11:52:58;;;;;;;47.80;34.25;;;14.80;92.70;;;;;;4973285;28;20030;-64
2022/03/25 11:55:23;;;;;;;60.85;40.72;;;14.70;91.80;;;;;;4973611;28;20126;-64
2022/03/25 11:57:50;;;;;;;54.70;39.42;;;14.70;92.00;;;;;;4960475;28;20118;-64
2022/03/25 12:00:23;;;;;;;50.80;35.65;;;15.00;79.50;;;;;;4953909;28;20035;-64
2022/03/25 12:03:03;;;;;;;53.63;37.72;;;15.10;80.10;;;;;;4954290;28;20380;-64
2022/03/25 12:05:29;;;;;;;50.58;36.35;;;15.20;91.90;;;;;;4953911;28;20126;-64
2022/03/25 12:08:31;;;;;;;51.13;35.50;;;15.40;91.90;;;;;;4966623;28;20154;-64
2022/03/25 12:10:59;;;;;;;57.30;36.78;;;15.40;91.90;;;;;;4973058;28;20566;-64
2022/03/25 12:13:50;;;;;;;45.78;31.63;;;15.20;78.70;;;;;;4973263;28;20373;-65
2022/03/25 12:16:47;;;;;;;54.15;38.50;;;15.50;91.90;;;;;;4972730;28;20023;-64
2022/03/25 12:19:30;;;;;;;53.92;34.72;;;15.50;91.80;;;;;;4953799;29;20105;-65
2022/03/25 12:22:04;;;;;;;54.90;38.25;;;15.90;86.80;;;;;;4952823;28;20386;-65
2022/03/25 12:24:31;;;;;;;51.95;38.22;;;15.40;78.40;;;;;;4953850;28;20034;-65
2022/03/25 12:27:00;;;;;;;54.55;39.35;;;15.40;77.70;;;;;;4957265;28;20674;-66
2022/03/25 12:29:34;;;;;;;56.13;37.67;;;15.80;77.60;;;;;;4962518;28;20443;-66
2022/03/25 12:32:03;;;;;;;;;;;15.60;77.20;;;;;;4972064;28;20034;-66
2022/03/25 12:34:37;;;;;;;43.75;29.90;;;15.50;90.30;;;;;;4962930;28;19949;-67
2022/03/25 12:37:06;;;;;;;39.05;27.52;;;15.70;90.40;;;;;;4959638;28;20027;-66
2022/03/25 12:39:31;;;;;;;53.20;37.40;;;15.50;90.20;;;;;;4971310;28;20035;-67
2022/03/25 12:41:57;;;;;;;50.70;36.42;;;15.70;90.50;;;;;;4971031;28;20030;-66
2022/03/25 12:44:27;;;;;;;47.17;31.45;;;15.90;90.40;;;;;;4970131;28;20372;-66
2022/03/25 12:46:58;;;;;;;39.45;28.25;;;15.70;76.40;;;;;;4969482;28;20399;-66
2022/03/25 12:49:24;;;;;;;41.65;28.75;;;15.80;90.10;;;;;;4961314;28;20444;-66
2022/03/25 12:51:56;;;;;;;49.00;31.95;;;15.80;75.00;;;;;;4971304;28;20023;-66
2022/03/25 12:54:22;;;;;;;44.60;29.63;;;15.70;89.00;;;;;;4972097;28;20122;-66
2022/03/25 12:56:58;;;;;;;39.88;26.25;;;15.80;73.70;;;;;;4971825;28;20117;-66
2022/03/25 12:59:35;;;;;;;43.60;28.05;;;15.80;74.50;;;;;;4971309;28;20027;-66
2022/03/25 13:02:10;;;;;;;36.88;26.15;;;15.90;73.80;;;;;;4968454;28;20074;-66
2022/03/25 13:04:36;;;;;;;37.03;25.45;;;16.10;87.50;;;;;;4952373;28;20031;-66